Time;durP1;ratioP1;P1;durP2;ratioP2;P2;SDS_P1;SDS_P2;PMS_P1;PMS_P2;Temp;Humidity;BMP_temperature;BMP_pressure;BME280_temperature;BME280_humidity;BME280_pressure;Samples;Min_cycle;Max_cycle;Signal;HPM_P1;HPM_P2
2023/05/28 00:00:51;;;;;;;18.10;6.38;;;;;;;;;;5074471;28;20168;-87
2023/05/28 00:03:19;;;;;;;19.35;7.50;;;;;;;;;;5045348;28;20489;-87
2023/05/28 00:05:45;;;;;;;24.23;7.00;;;;;;;;;;5072948;28;20040;-87
2023/05/28 00:08:13;;;;;;;22.20;7.40;;;;;;;;;;5074158;28;20370;-87
2023/05/28 00:10:39;;;;;;;19.45;7.38;;;;;;;;;;5060167;28;20119;-87
2023/05/28 00:13:05;;;;;;;22.10;6.80;;;;;;;;;;5065416;28;20115;-87
2023/05/28 00:15:31;;;;;;;24.55;7.78;;;;;;;;;;5062135;28;20401;-87
2023/05/28 00:17:58;;;;;;;21.95;7.88;;;;;;;;;;5074238;28;20040;-87
2023/05/28 00:20:25;;;;;;;22.77;7.43;;;;;;;;;;5065819;28;20155;-87
2023/05/28 00:22:51;;;;;;;20.90;7.00;;;;;;;;;;5063458;28;20559;-87
2023/05/28 00:25:17;;;;;;;19.25;7.15;;;;;;;;;;5054143;28;20037;-87
2023/05/28 00:27:43;;;;;;;21.00;7.32;;;;;;;;;;5054318;28;20072;-87
2023/05/28 00:30:09;;;;;;;19.92;7.57;;;;;;;;;;5055357;28;20064;-87
2023/05/28 00:32:35;;;;;;;20.88;7.53;;;;;;;;;;5047332;28;20398;-87
2023/05/28 00:35:02;;;;;;;22.83;8.63;;;;;;;;;;5047774;28;20045;-87
2023/05/28 00:37:28;;;;;;;20.98;7.05;;;;;;;;;;5053635;28;20041;-88
2023/05/28 00:39:54;;;;;;;24.75;7.80;;;;;;;;;;5054465;28;20051;-88
2023/05/28 00:42:20;;;;;;;21.52;7.70;;;;;;;;;;5037171;28;20041;-87
2023/05/28 00:44:47;;;;;;;22.60;7.97;;;;;;;;;;5054085;28;20045;-87
2023/05/28 00:47:13;;;;;;;22.88;8.05;;;;;;;;;;5053031;28;20060;-87
2023/05/28 00:49:40;;;;;;;21.50;8.10;;;;;;;;;;5054792;28;20049;-87
2023/05/28 00:52:07;;;;;;;20.80;8.13;;;;;;;;;;5053537;28;20053;-87
2023/05/28 00:54:34;;;;;;;25.13;8.23;;;;;;;;;;5053257;28;20121;-87
2023/05/28 00:57:00;;;;;;;18.50;7.05;;;;;;;;;;5040987;28;20045;-88
2023/05/28 00:59:27;;;;;;;19.83;7.38;;;;;;;;;;5051528;28;20044;-88
2023/05/28 01:01:53;;;;;;;18.25;6.63;;;;;;;;;;5037150;28;20481;-87
2023/05/28 01:04:21;;;;;;;22.23;7.55;;;;;;;;;;5054284;28;20044;-87
2023/05/28 01:06:48;;;;;;;17.67;7.80;;;;;;;;;;5037486;28;20129;-87
2023/05/28 01:09:14;;;;;;;17.60;7.75;;;;;;;;;;5053059;28;20060;-87
2023/05/28 01:11:41;;;;;;;21.48;7.78;;;;;;;;;;5053188;28;20545;-87
2023/05/28 01:14:07;;;;;;;19.92;7.85;;;;;;;;;;5039813;28;20041;-87
2023/05/28 01:16:34;;;;;;;21.00;7.55;;;;;;;;;;5052319;28;20462;-87
2023/05/28 01:19:02;;;;;;;20.65;7.43;;;;;;;;;;5036569;28;20047;-87
2023/05/28 01:21:30;;;;;;;20.42;8.35;;;;;;;;;;5052919;28;20049;-87
2023/05/28 01:23:58;;;;;;;21.05;7.47;;;;;;;;;;5054239;28;20045;-87
2023/05/28 01:26:27;;;;;;;21.10;7.32;;;;;;;;;;5052688;28;20398;-88
2023/05/28 01:28:53;;;;;;;18.80;7.28;;;;;;;;;;5036106;28;20040;-87
2023/05/28 01:31:19;;;;;;;20.60;7.68;;;;;;;;;;5052898;28;20061;-87
2023/05/28 01:33:45;;;;;;;18.52;7.75;;;;;;;;;;5052720;28;20041;-87
2023/05/28 01:36:14;;;;;;;20.95;6.90;;;;;;;;;;5052704;28;20041;-87
2023/05/28 01:38:43;;;;;;;16.83;6.93;;;;;;;;;;5066562;28;20802;-87
2023/05/28 01:41:09;;;;;;;18.75;8.15;;;;;;;;;;5045120;28;20398;-87
2023/05/28 01:43:36;;;;;;;16.23;6.63;;;;;;;;;;5046704;28;20111;-87
2023/05/28 01:46:02;;;;;;;23.08;7.50;;;;;;;;;;5052985;28;20037;-86
2023/05/28 01:48:29;;;;;;;25.63;7.50;;;;;;;;;;5036117;28;20044;-86
2023/05/28 01:50:55;;;;;;;26.95;7.53;;;;;;;;;;5052895;28;20115;-86
2023/05/28 01:53:21;;;;;;;16.98;6.63;;;;;;;;;;5036333;28;20044;-86
2023/05/28 01:55:47;;;;;;;19.00;7.15;;;;;;;;;;5054204;28;20128;-86
2023/05/28 01:58:13;;;;;;;17.92;7.00;;;;;;;;;;5052484;28;20045;-87
2023/05/28 02:00:43;;;;;;;18.90;7.60;;;;;;;;;;5051767;28;20041;-86
2023/05/28 02:03:11;;;;;;;18.98;7.05;;;;;;;;;;5046834;28;20045;-86
2023/05/28 02:05:37;;;;;;;17.23;6.35;;;;;;;;;;5034650;28;20044;-86
2023/05/28 02:08:04;;;;;;;20.27;6.63;;;;;;;;;;5051782;28;20036;-86
2023/05/28 02:10:30;;;;;;;17.10;6.75;;;;;;;;;;5051852;28;20048;-86
2023/05/28 02:12:56;;;;;;;17.95;7.85;;;;;;;;;;5052743;28;20040;-87
2023/05/28 02:15:22;;;;;;;19.58;6.60;;;;;;;;;;5052099;28;20040;-87
2023/05/28 02:17:49;;;;;;;20.02;6.97;;;;;;;;;;5051742;28;20044;-87
2023/05/28 02:20:16;;;;;;;17.40;6.68;;;;;;;;;;5052264;28;20382;-87
2023/05/28 02:22:42;;;;;;;19.33;7.80;;;;;;;;;;5051582;28;20049;-87
2023/05/28 02:25:08;;;;;;;21.08;7.40;;;;;;;;;;5052209;28;20056;-88
2023/05/28 02:27:35;;;;;;;20.23;7.90;;;;;;;;;;5051905;28;20493;-87
2023/05/28 02:30:02;;;;;;;21.40;7.97;;;;;;;;;;5051838;28;20053;-87
2023/05/28 02:32:28;;;;;;;17.75;7.07;;;;;;;;;;5052442;28;20393;-87
2023/05/28 02:34:54;;;;;;;19.17;7.63;;;;;;;;;;5052470;28;20547;-87
2023/05/28 02:37:23;;;;;;;20.85;7.90;;;;;;;;;;5052145;28;20049;-87
2023/05/28 02:39:50;;;;;;;22.55;8.48;;;;;;;;;;5053206;28;20502;-87
2023/05/28 02:42:17;;;;;;;19.63;7.70;;;;;;;;;;5035507;28;20056;-87
2023/05/28 02:44:43;;;;;;;24.30;7.32;;;;;;;;;;5051464;28;20052;-87
2023/05/28 02:47:09;;;;;;;19.80;7.25;;;;;;;;;;5034932;28;20052;-87
2023/05/28 02:49:35;;;;;;;16.73;6.88;;;;;;;;;;5051216;28;20049;-88
2023/05/28 02:52:01;;;;;;;19.00;8.20;;;;;;;;;;5051356;28;20075;-87
2023/05/28 02:54:27;;;;;;;22.05;7.95;;;;;;;;;;5034993;28;20047;-88
2023/05/28 02:56:53;;;;;;;21.77;7.47;;;;;;;;;;5051094;28;20489;-88
2023/05/28 02:59:19;;;;;;;23.00;8.05;;;;;;;;;;5052595;28;20122;-88
2023/05/28 03:01:46;;;;;;;17.77;7.53;;;;;;;;;;5050639;28;20052;-88
2023/05/28 03:04:12;;;;;;;18.33;8.52;;;;;;;;;;5065337;28;20076;-88
2023/05/28 03:06:38;;;;;;;23.05;8.80;;;;;;;;;;5050781;28;20044;-88
2023/05/28 03:09:04;;;;;;;21.55;8.48;;;;;;;;;;5052209;28;20041;-88
2023/05/28 03:11:30;;;;;;;18.88;8.18;;;;;;;;;;5034263;28;20037;-88
2023/05/28 03:13:56;;;;;;;20.50;7.30;;;;;;;;;;5034368;28;20460;-88
2023/05/28 03:16:25;;;;;;;19.73;7.70;;;;;;;;;;5051105;28;20401;-88
2023/05/28 03:18:51;;;;;;;18.45;7.40;;;;;;;;;;5050753;28;20120;-88
2023/05/28 03:21:17;;;;;;;17.73;8.00;;;;;;;;;;5050788;28;20052;-88
2023/05/28 03:23:44;;;;;;;20.48;8.10;;;;;;;;;;5050829;28;20389;-87
2023/05/28 03:26:10;;;;;;;18.25;8.00;;;;;;;;;;5047187;28;20084;-88
2023/05/28 03:28:36;;;;;;;21.83;8.13;;;;;;;;;;5024115;28;20049;-88
2023/05/28 03:31:03;;;;;;;20.05;7.90;;;;;;;;;;5034060;28;20489;-87
2023/05/28 03:33:29;;;;;;;22.20;8.25;;;;;;;;;;5050678;28;20090;-88
2023/05/28 03:35:56;;;;;;;22.58;8.85;;;;;;;;;;5050754;28;20688;-88
2023/05/28 03:38:22;;;;;;;20.40;9.02;;;;;;;;;;5034328;28;20044;-87
2023/05/28 03:40:48;;;;;;;19.80;8.68;;;;;;;;;;5050737;28;20059;-87
2023/05/28 03:43:14;;;;;;;21.70;8.40;;;;;;;;;;5034269;28;20037;-87
2023/05/28 03:45:40;;;;;;;25.45;8.10;;;;;;;;;;5050524;28;20098;-87
2023/05/28 03:48:06;;;;;;;18.67;8.20;;;;;;;;;;5031613;28;20064;-87
2023/05/28 03:50:33;;;;;;;17.48;7.75;;;;;;;;;;5039392;28;20048;-87
2023/05/28 03:52:59;;;;;;;23.50;9.40;;;;;;;;;;5033784;28;20059;-87
2023/05/28 03:55:25;;;;;;;18.67;7.40;;;;;;;;;;5034443;28;20098;-87
2023/05/28 03:57:51;;;;;;;21.35;8.82;;;;;;;;;;5050757;28;20089;-87
2023/05/28 04:00:17;;;;;;;22.85;8.38;;;;;;;;;;5034247;28;20068;-87
2023/05/28 04:02:43;;;;;;;23.20;9.20;;;;;;;;;;5032885;28;20042;-87
2023/05/28 04:05:09;;;;;;;26.13;9.38;;;;;;;;;;5050028;28;20123;-87
2023/05/28 04:07:35;;;;;;;20.50;7.88;;;;;;;;;;5061004;28;20048;-86
2023/05/28 04:10:01;;;;;;;20.65;8.35;;;;;;;;;;5061532;28;20044;-86
2023/05/28 04:12:27;;;;;;;22.38;9.07;;;;;;;;;;5050658;28;20107;-87
2023/05/28 04:14:54;;;;;;;19.27;7.47;;;;;;;;;;5050648;28;20045;-87
2023/05/28 04:17:20;;;;;;;22.77;8.45;;;;;;;;;;5051606;28;20112;-87
2023/05/28 04:19:46;;;;;;;16.05;6.70;;;;;;;;;;5050406;28;20491;-87
2023/05/28 04:22:13;;;;;;;16.98;7.10;;;;;;;;;;5062492;28;20040;-87
2023/05/28 04:24:39;;;;;;;15.70;8.13;;;;;;;;;;5053998;28;20037;-87
2023/05/28 04:27:06;;;;;;;21.00;8.90;;;;;;;;;;5053908;28;20621;-87
2023/05/28 04:29:33;;;;;;;18.58;7.75;;;;;;;;;;5053585;28;20037;-87
2023/05/28 04:31:59;;;;;;;21.42;8.27;;;;;;;;;;5053654;28;20135;-87
2023/05/28 04:34:26;;;;;;;20.55;8.18;;;;;;;;;;5036983;28;20127;-88
2023/05/28 04:36:52;;;;;;;19.77;7.00;;;;;;;;;;5053909;28;20386;-88
2023/05/28 04:39:19;;;;;;;19.65;7.55;;;;;;;;;;5053833;28;20400;-88
2023/05/28 04:41:45;;;;;;;19.52;7.93;;;;;;;;;;5036738;28;20037;-88
2023/05/28 04:44:15;;;;;;;16.23;7.10;;;;;;;;;;5087150;28;20048;-88
2023/05/28 04:46:43;;;;;;;14.32;7.10;;;;;;;;;;5058941;28;20040;-87
2023/05/28 04:49:13;;;;;;;19.98;7.22;;;;;;;;;;5059348;28;20490;-87
2023/05/28 04:51:39;;;;;;;14.95;7.03;;;;;;;;;;5085152;28;20043;-87
2023/05/28 04:54:06;;;;;;;14.85;6.65;;;;;;;;;;5053744;28;20037;-87
2023/05/28 04:56:32;;;;;;;16.83;6.75;;;;;;;;;;5067575;28;20120;-87
2023/05/28 04:58:58;;;;;;;13.95;6.53;;;;;;;;;;5062630;28;20127;-87
2023/05/28 05:01:24;;;;;;;16.98;6.78;;;;;;;;;;5087103;28;20116;-86
2023/05/28 05:03:51;;;;;;;19.65;7.32;;;;;;;;;;5067297;28;20093;-87
2023/05/28 05:06:17;;;;;;;21.35;6.88;;;;;;;;;;5037159;28;20049;-86
2023/05/28 05:08:43;;;;;;;14.02;6.22;;;;;;;;;;5052926;28;20041;-87
2023/05/28 05:11:09;;;;;;;16.77;6.72;;;;;;;;;;5023365;28;20409;-87
2023/05/28 05:13:35;;;;;;;13.10;5.95;;;;;;;;;;5053326;28;20041;-87
2023/05/28 05:16:01;;;;;;;14.98;5.82;;;;;;;;;;5052846;28;20071;-87
2023/05/28 05:18:27;;;;;;;13.77;6.20;;;;;;;;;;5069946;28;20048;-88
2023/05/28 05:20:55;;;;;;;17.38;6.45;;;;;;;;;;5052894;28;20498;-88
2023/05/28 05:23:21;;;;;;;17.70;6.35;;;;;;;;;;5053025;28;20044;-88
2023/05/28 05:25:47;;;;;;;14.63;5.60;;;;;;;;;;5054412;28;20116;-87
2023/05/28 05:28:13;;;;;;;13.05;5.75;;;;;;;;;;5052626;28;20041;-88
2023/05/28 05:30:40;;;;;;;13.30;5.45;;;;;;;;;;5039624;28;20064;-88
2023/05/28 05:33:06;;;;;;;18.33;6.10;;;;;;;;;;5051583;28;20443;-88
2023/05/28 05:35:32;;;;;;;15.63;6.18;;;;;;;;;;5052771;28;20040;-88
2023/05/28 05:37:58;;;;;;;13.75;6.13;;;;;;;;;;5052343;28;20086;-87
2023/05/28 05:40:24;;;;;;;16.73;5.78;;;;;;;;;;5052907;28;20064;-87
2023/05/28 05:42:50;;;;;;;17.25;6.18;;;;;;;;;;5052592;28;20041;-88
2023/05/28 05:45:16;;;;;;;14.32;5.30;;;;;;;;;;5053875;28;20044;-87
2023/05/28 05:47:42;;;;;;;13.70;5.38;;;;;;;;;;5052972;28;20379;-88
2023/05/28 05:50:12;;;;;;;16.42;6.18;;;;;;;;;;5052553;28;20074;-87
2023/05/28 05:52:38;;;;;;;17.67;6.00;;;;;;;;;;5052598;28;20087;-87
2023/05/28 05:55:05;;;;;;;17.02;5.47;;;;;;;;;;5035461;28;20037;-87
2023/05/28 05:57:32;;;;;;;13.43;5.53;;;;;;;;;;5052750;28;20079;-87
2023/05/28 05:59:58;;;;;;;12.07;5.40;;;;;;;;;;5052151;28;20375;-88
2023/05/28 06:02:25;;;;;;;14.48;5.45;;;;;;;;;;5052233;28;20163;-88
2023/05/28 06:04:51;;;;;;;14.30;5.95;;;;;;;;;;5052685;28;20513;-88
2023/05/28 06:07:17;;;;;;;13.07;5.53;;;;;;;;;;5052089;28;20045;-88
2023/05/28 06:09:44;;;;;;;9.68;5.15;;;;;;;;;;5052515;28;20522;-88
2023/05/28 06:12:10;;;;;;;14.75;5.57;;;;;;;;;;5053072;28;20045;-88
2023/05/28 06:14:36;;;;;;;13.45;5.90;;;;;;;;;;5052216;28;20063;-88
2023/05/28 06:17:02;;;;;;;14.35;5.32;;;;;;;;;;5053144;28;20041;-88
2023/05/28 06:19:29;;;;;;;15.35;5.72;;;;;;;;;;5086022;28;20037;-89
2023/05/28 06:21:55;;;;;;;10.98;5.10;;;;;;;;;;5052079;28;20057;-89
2023/05/28 06:24:21;;;;;;;14.10;5.20;;;;;;;;;;5034976;28;20122;-88
2023/05/28 06:26:47;;;;;;;14.75;5.65;;;;;;;;;;5035258;28;20044;-88
2023/05/28 06:29:13;;;;;;;15.80;5.57;;;;;;;;;;5018670;28;20045;-88
2023/05/28 06:31:40;;;;;;;12.88;5.00;;;;;;;;;;5051919;28;20049;-88
2023/05/28 06:34:07;;;;;;;11.32;5.05;;;;;;;;;;5052089;28;20049;-89
2023/05/28 06:36:33;;;;;;;11.57;5.10;;;;;;;;;;5051703;28;20048;-88
2023/05/28 06:38:59;;;;;;;11.55;5.20;;;;;;;;;;5051867;28;20088;-89
2023/05/28 06:41:25;;;;;;;9.65;5.30;;;;;;;;;;5035127;28;20618;-88
2023/05/28 06:43:51;;;;;;;13.80;5.38;;;;;;;;;;5042265;28;20037;-88
2023/05/28 06:46:17;;;;;;;11.73;5.50;;;;;;;;;;5047364;28;20037;-89
2023/05/28 06:48:43;;;;;;;12.40;5.25;;;;;;;;;;5035228;28;20551;-89
2023/05/28 06:51:10;;;;;;;11.70;5.07;;;;;;;;;;5035100;28;20518;-89
2023/05/28 06:53:37;;;;;;;9.65;5.13;;;;;;;;;;5051675;28;20490;-89
2023/05/28 06:56:03;;;;;;;11.35;5.30;;;;;;;;;;5051113;28;20083;-88
2023/05/28 06:58:30;;;;;;;11.82;4.93;;;;;;;;;;5051392;28;20123;-89
2023/05/28 07:00:56;;;;;;;10.20;5.10;;;;;;;;;;5018497;28;20048;-89
2023/05/28 07:03:22;;;;;;;12.45;5.70;;;;;;;;;;5047094;28;20044;-89
2023/05/28 07:05:48;;;;;;;11.95;5.07;;;;;;;;;;5052866;28;20116;-89
2023/05/28 07:08:14;;;;;;;12.57;5.05;;;;;;;;;;5051215;28;20397;-89
2023/05/28 07:10:40;;;;;;;12.00;5.00;;;;;;;;;;5034723;28;20067;-90
2023/05/28 07:13:06;;;;;;;11.85;5.22;;;;;;;;;;5050959;28;20090;-89
2023/05/28 07:15:32;;;;;;;10.30;5.13;;;;;;;;;;5051045;28;20083;-88
2023/05/28 07:18:01;;;;;;;10.65;5.18;;;;;;;;;;5051519;28;20045;-89
2023/05/28 07:20:28;;;;;;;9.75;5.20;;;;;;;;;;5051093;28;20044;-89
2023/05/28 07:22:54;;;;;;;10.10;5.70;;;;;;;;;;5051361;28;20490;-89
2023/05/28 07:25:20;;;;;;;12.05;5.40;;;;;;;;;;5034315;28;20047;-86
2023/05/28 07:27:46;;;;;;;9.35;5.07;;;;;;;;;;5051028;28;20049;-86
2023/05/28 07:30:13;;;;;;;9.10;5.30;;;;;;;;;;5050758;28;20510;-87
2023/05/28 07:32:39;;;;;;;11.45;5.55;;;;;;;;;;5051032;28;20383;-87
2023/05/28 07:35:06;;;;;;;11.05;5.22;;;;;;;;;;5051054;28;20052;-87
2023/05/28 07:37:32;;;;;;;8.88;5.50;;;;;;;;;;5051636;28;20076;-86
2023/05/28 07:39:58;;;;;;;8.73;5.32;;;;;;;;;;5050874;28;20048;-87
2023/05/28 07:42:25;;;;;;;9.18;5.22;;;;;;;;;;5052262;28;20040;-87
2023/05/28 07:44:51;;;;;;;10.60;5.13;;;;;;;;;;5052419;28;20036;-87
2023/05/28 07:47:17;;;;;;;10.07;5.50;;;;;;;;;;5051107;28;20048;-87
2023/05/28 07:49:43;;;;;;;11.07;5.90;;;;;;;;;;5050991;28;20053;-88
2023/05/28 07:52:09;;;;;;;10.45;5.63;;;;;;;;;;5051322;28;20037;-88
2023/05/28 07:54:35;;;;;;;10.43;5.85;;;;;;;;;;5051147;28;20037;-87
2023/05/28 07:57:02;;;;;;;11.68;5.72;;;;;;;;;;5037509;28;20107;-87
2023/05/28 07:59:28;;;;;;;11.90;5.80;;;;;;;;;;5054653;28;20044;-87
2023/05/28 08:01:54;;;;;;;11.50;5.78;;;;;;;;;;5054956;28;20076;-87
2023/05/28 08:04:22;;;;;;;10.52;5.75;;;;;;;;;;5055237;28;20049;-88
2023/05/28 08:06:48;;;;;;;13.73;5.78;;;;;;;;;;5038090;28;20076;-87
2023/05/28 08:09:17;;;;;;;12.48;6.10;;;;;;;;;;5037804;28;20048;-88
2023/05/28 08:11:43;;;;;;;11.60;5.43;;;;;;;;;;5054820;28;20120;-87
2023/05/28 08:14:09;;;;;;;12.50;5.90;;;;;;;;;;5055611;28;20379;-88
2023/05/28 08:16:35;;;;;;;9.10;5.53;;;;;;;;;;5054269;28;20044;-87
2023/05/28 08:19:01;;;;;;;10.57;5.50;;;;;;;;;;5055980;28;20037;-87
2023/05/28 08:21:28;;;;;;;13.43;5.68;;;;;;;;;;5067122;28;20408;-87
2023/05/28 08:23:57;;;;;;;11.30;5.72;;;;;;;;;;5055649;28;20552;-87
2023/05/28 08:26:23;;;;;;;12.07;5.43;;;;;;;;;;5053970;28;20037;-87
2023/05/28 08:28:49;;;;;;;13.55;5.85;;;;;;;;;;5054495;28;20123;-87
2023/05/28 08:31:15;;;;;;;11.75;5.90;;;;;;;;;;5054068;28;20118;-87
2023/05/28 08:33:41;;;;;;;9.68;5.20;;;;;;;;;;5054520;28;20044;-87
2023/05/28 08:36:07;;;;;;;11.38;5.60;;;;;;;;;;5055339;28;20140;-86
2023/05/28 08:38:33;;;;;;;11.40;5.60;;;;;;;;;;5053857;28;20037;-87
2023/05/28 08:41:00;;;;;;;11.30;5.82;;;;;;;;;;5054179;28;20041;-88
2023/05/28 08:43:27;;;;;;;10.25;5.05;;;;;;;;;;5067675;28;20041;-87
2023/05/28 08:45:53;;;;;;;12.95;5.65;;;;;;;;;;5053979;28;20052;-87
2023/05/28 08:48:20;;;;;;;9.75;5.47;;;;;;;;;;5053824;28;20112;-87
2023/05/28 08:50:48;;;;;;;10.07;5.47;;;;;;;;;;5053929;28;20054;-87
2023/05/28 08:53:15;;;;;;;11.77;5.22;;;;;;;;;;5037485;28;20041;-86
2023/05/28 08:55:41;;;;;;;14.13;5.75;;;;;;;;;;5053631;28;20045;-87
2023/05/28 08:58:07;;;;;;;12.75;5.65;;;;;;;;;;5037279;28;20032;-86
2023/05/28 09:00:34;;;;;;;14.10;6.28;;;;;;;;;;5053358;28;20044;-86
2023/05/28 09:03:01;;;;;;;10.32;5.38;;;;;;;;;;5046528;28;20401;-87
2023/05/28 09:05:27;;;;;;;11.70;5.78;;;;;;;;;;5057540;28;20048;-87
2023/05/28 09:07:53;;;;;;;13.20;5.60;;;;;;;;;;5053021;28;20036;-86
2023/05/28 09:10:20;;;;;;;11.68;5.55;;;;;;;;;;5036809;28;20091;-87
2023/05/28 09:12:59;;;;;;;12.30;5.82;;;;;;;;;;5053435;28;20041;-87
2023/05/28 09:15:26;;;;;;;11.80;5.85;;;;;;;;;;5036670;28;20458;-87
2023/05/28 09:17:52;;;;;;;12.13;5.50;;;;;;;;;;5017537;28;20402;-87
2023/05/28 09:20:18;;;;;;;11.60;5.60;;;;;;;;;;5028767;28;20382;-86
2023/05/28 09:22:44;;;;;;;8.80;5.50;;;;;;;;;;5053021;28;20485;-87
2023/05/28 09:25:11;;;;;;;14.82;5.75;;;;;;;;;;5053044;28;20048;-86
2023/05/28 09:27:37;;;;;;;9.75;5.50;;;;;;;;;;5053027;28;20049;-87
2023/05/28 09:30:07;;;;;;;12.55;5.57;;;;;;;;;;5052752;28;20045;-87
2023/05/28 09:32:34;;;;;;;9.75;5.60;;;;;;;;;;5052812;28;20052;-87
2023/05/28 09:35:01;;;;;;;8.57;5.30;;;;;;;;;;5036555;28;20090;-86
2023/05/28 09:37:31;;;;;;;9.85;5.22;;;;;;;;;;5052814;28;20516;-86
2023/05/28 09:40:01;;;;;;;10.77;5.45;;;;;;;;;;5047880;28;20048;-87
2023/05/28 09:42:33;;;;;;;9.90;5.47;;;;;;;;;;5044883;28;20048;-86
2023/05/28 09:45:01;;;;;;;8.80;5.28;;;;;;;;;;5022323;28;20041;-86
2023/05/28 09:47:27;;;;;;;11.50;5.07;;;;;;;;;;5052545;28;20041;-87
2023/05/28 09:49:53;;;;;;;9.73;5.15;;;;;;;;;;5036790;28;20073;-87
2023/05/28 09:52:20;;;;;;;10.90;5.32;;;;;;;;;;5036837;28;20033;-86
2023/05/28 09:54:54;;;;;;;9.95;5.07;;;;;;;;;;5052764;28;20437;-87
2023/05/28 09:57:27;;;;;;;9.67;4.80;;;;;;;;;;5052931;28;20048;-86
2023/05/28 09:59:55;;;;;;;10.45;5.13;;;;;;;;;;5035804;28;20135;-87
2023/05/28 10:02:24;;;;;;;13.20;5.03;;;;;;;;;;5057422;28;20068;-87
2023/05/28 10:04:56;;;;;;;9.52;4.95;;;;;;;;;;5055311;28;20059;-86
2023/05/28 10:07:24;;;;;;;11.27;5.18;;;;;;;;;;5036460;28;20036;-86
2023/05/28 10:09:51;;;;;;;10.95;5.07;;;;;;;;;;5052366;28;20041;-86
2023/05/28 10:12:18;;;;;;;8.93;4.70;;;;;;;;;;5052191;28;20045;-86
2023/05/28 10:14:45;;;;;;;7.93;4.32;;;;;;;;;;5052797;28;20398;-86
2023/05/28 10:17:11;;;;;;;8.80;4.63;;;;;;;;;;5052498;28;20041;-86
2023/05/28 10:19:38;;;;;;;7.65;4.35;;;;;;;;;;5051491;28;20493;-86
2023/05/28 10:22:04;;;;;;;8.25;4.50;;;;;;;;;;5039842;28;20081;-86
2023/05/28 10:24:31;;;;;;;8.70;4.40;;;;;;;;;;5049933;28;20040;-87
2023/05/28 10:26:58;;;;;;;10.80;4.47;;;;;;;;;;5036160;28;20111;-85
2023/05/28 10:29:24;;;;;;;8.88;4.22;;;;;;;;;;5056180;28;20124;-86
2023/05/28 10:32:12;;;;;;;8.43;4.18;;;;;;;;;;5053647;28;20056;-86
2023/05/28 10:34:39;;;;;;;6.57;3.75;;;;;;;;;;5038489;28;20047;-87
2023/05/28 10:37:13;;;;;;;7.95;3.90;;;;;;;;;;5068098;28;20265;-86
2023/05/28 10:39:45;;;;;;;10.23;4.40;;;;;;;;;;5040425;28;20099;-86
2023/05/28 10:42:20;;;;;;;10.38;4.07;;;;;;;;;;5051939;28;20041;-86
2023/05/28 10:44:46;;;;;;;;;;;;;;;;;;5051501;28;20048;-87
2023/05/28 10:47:14;;;;;;;9.73;4.43;;;;;;;;;;5035748;28;20416;-86
2023/05/28 10:49:58;;;;;;;8.88;4.40;;;;;;;;;;5052674;28;20379;-86
2023/05/28 10:52:25;;;;;;;8.23;4.25;;;;;;;;;;5052719;28;20045;-85
2023/05/28 10:54:52;;;;;;;8.82;4.20;;;;;;;;;;5052739;28;20394;-86
2023/05/28 10:57:20;;;;;;;8.68;4.95;;;;;;;;;;5051769;28;20090;-86
2023/05/28 10:59:53;;;;;;;7.40;4.38;;;;;;;;;;5052390;28;20064;-86
2023/05/28 11:02:30;;;;;;;7.70;4.32;;;;;;;;;;5051377;28;20045;-86
2023/05/28 11:04:59;;;;;;;8.25;4.85;;;;;;;;;;5034837;28;20052;-86
2023/05/28 11:07:30;;;;;;;8.00;5.03;;;;;;;;;;5051638;28;20044;-86
2023/05/28 11:09:57;;;;;;;6.88;4.82;;;;;;;;;;5050932;28;20578;-86
2023/05/28 11:12:23;;;;;;;18.13;5.15;;;;;;;;;;5051324;28;20106;-87
2023/05/28 11:14:49;;;;;;;9.32;5.05;;;;;;;;;;5051259;28;20028;-87
2023/05/28 11:17:16;;;;;;;8.73;5.20;;;;;;;;;;5051229;28;20064;-87
2023/05/28 11:19:43;;;;;;;7.28;4.55;;;;;;;;;;5051152;28;20052;-85
2023/05/28 11:22:09;;;;;;;8.23;4.75;;;;;;;;;;5018577;28;20405;-85
2023/05/28 11:24:50;;;;;;;8.60;5.20;;;;;;;;;;5052013;28;20044;-85
2023/05/28 11:27:17;;;;;;;9.07;5.45;;;;;;;;;;5051147;28;20098;-86
2023/05/28 11:29:43;;;;;;;9.35;5.28;;;;;;;;;;5034194;28;20120;-85
2023/05/28 11:32:09;;;;;;;8.02;5.72;;;;;;;;;;5055162;28;20055;-86
2023/05/28 11:34:38;;;;;;;11.75;5.38;;;;;;;;;;5041005;28;20044;-86
2023/05/28 11:37:07;;;;;;;10.23;6.00;;;;;;;;;;5057745;28;20049;-86
2023/05/28 11:39:34;;;;;;;8.50;5.38;;;;;;;;;;5041083;28;20052;-85
2023/05/28 11:42:00;;;;;;;8.98;5.40;;;;;;;;;;5041084;28;20371;-80
2023/05/28 11:44:27;;;;;;;7.95;5.75;;;;;;;;;;5024271;28;20134;-80
2023/05/28 11:46:55;;;;;;;10.45;5.82;;;;;;;;;;5057346;28;20083;-80
2023/05/28 11:49:21;;;;;;;9.23;5.18;;;;;;;;;;5057364;28;20103;-79
2023/05/28 11:51:47;;;;;;;7.10;5.28;;;;;;;;;;5057300;28;20508;-80
2023/05/28 11:54:14;;;;;;;7.00;4.70;;;;;;;;;;5057533;28;20036;-80
2023/05/28 11:56:40;;;;;;;7.82;4.88;;;;;;;;;;5057257;28;20048;-80
2023/05/28 11:59:06;;;;;;;7.03;4.68;;;;;;;;;;5057393;28;20049;-80
2023/05/28 12:01:36;;;;;;;6.50;4.18;;;;;;;;;;5057519;28;20413;-80
2023/05/28 12:04:06;;;;;;;6.97;4.07;;;;;;;;;;5054609;28;20052;-80
2023/05/28 12:06:50;;;;;;;6.28;4.00;;;;;;;;;;5057267;28;20048;-80
2023/05/28 12:09:16;;;;;;;7.40;3.45;;;;;;;;;;5035787;28;20502;-80
2023/05/28 12:11:42;;;;;;;8.45;3.42;;;;;;;;;;5037131;28;20041;-80
2023/05/28 12:14:09;;;;;;;5.45;3.30;;;;;;;;;;5037964;28;20493;-80
2023/05/28 12:16:44;;;;;;;7.15;3.60;;;;;;;;;;5057431;28;20051;-81
2023/05/28 12:19:14;;;;;;;6.07;3.13;;;;;;;;;;5040948;28;20052;-80
2023/05/28 12:21:40;;;;;;;7.65;2.83;;;;;;;;;;5040696;28;20041;-81
2023/05/28 12:24:15;;;;;;;9.05;3.25;;;;;;;;;;5057060;28;20103;-80
2023/05/28 12:26:42;;;;;;;5.47;2.90;;;;;;;;;;5057388;28;20406;-80
2023/05/28 12:29:08;;;;;;;5.88;2.80;;;;;;;;;;5057927;28;20105;-81
2023/05/28 12:31:34;;;;;;;5.95;2.40;;;;;;;;;;5057171;28;20076;-80
2023/05/28 12:34:01;;;;;;;10.50;2.85;;;;;;;;;;5056887;28;20060;-79
2023/05/28 12:36:27;;;;;;;6.53;2.60;;;;;;;;;;5040595;28;20575;-80
2023/05/28 12:38:53;;;;;;;8.93;2.58;;;;;;;;;;5056848;28;20041;-80
2023/05/28 12:41:20;;;;;;;5.40;2.50;;;;;;;;;;5057072;28;20037;-80
2023/05/28 12:43:46;;;;;;;5.97;2.67;;;;;;;;;;5053991;28;20520;-80
2023/05/28 12:46:12;;;;;;;7.43;2.60;;;;;;;;;;5053960;28;20036;-81
2023/05/28 12:48:38;;;;;;;11.70;3.15;;;;;;;;;;5037184;28;20037;-80
2023/05/28 12:51:04;;;;;;;6.13;2.50;;;;;;;;;;5053513;28;20505;-80
2023/05/28 12:53:30;;;;;;;5.20;2.53;;;;;;;;;;5048662;28;20041;-79
2023/05/28 12:55:56;;;;;;;8.77;2.80;;;;;;;;;;5027749;28;20098;-80
2023/05/28 12:58:23;;;;;;;7.28;3.05;;;;;;;;;;5037244;28;20037;-80
2023/05/28 13:00:50;;;;;;;8.43;2.85;;;;;;;;;;5053479;28;20045;-80
2023/05/28 13:03:16;;;;;;;6.50;2.80;;;;;;;;;;5053576;28;20053;-81
2023/05/28 13:05:42;;;;;;;9.80;2.85;;;;;;;;;;5053425;28;20045;-82
2023/05/28 13:08:08;;;;;;;6.10;3.03;;;;;;;;;;5070568;28;20740;-81
2023/05/28 13:10:34;;;;;;;7.15;3.00;;;;;;;;;;5053399;28;20548;-80
2023/05/28 13:13:00;;;;;;;8.52;3.00;;;;;;;;;;5053055;28;20047;-80
2023/05/28 13:15:26;;;;;;;9.77;3.15;;;;;;;;;;5036791;28;20065;-80
2023/05/28 13:17:52;;;;;;;10.18;3.95;;;;;;;;;;5036314;28;20037;-80
2023/05/28 13:20:18;;;;;;;8.57;2.75;;;;;;;;;;5053331;28;20041;-81
2023/05/28 13:22:45;;;;;;;8.75;3.95;;;;;;;;;;5053852;28;20626;-81
2023/05/28 13:25:11;;;;;;;8.85;3.50;;;;;;;;;;5052672;28;20097;-80
2023/05/28 13:27:37;;;;;;;7.05;3.83;;;;;;;;;;5052957;28;20080;-81
2023/05/28 13:30:03;;;;;;;10.98;3.90;;;;;;;;;;5052836;28;20475;-80
2023/05/28 13:32:29;;;;;;;9.57;4.43;;;;;;;;;;5036202;28;20134;-80
2023/05/28 13:34:55;;;;;;;21.23;4.93;;;;;;;;;;5052729;28;20505;-80
2023/05/28 13:37:21;;;;;;;11.90;3.70;;;;;;;;;;5052900;28;20052;-81
2023/05/28 13:39:48;;;;;;;9.05;3.65;;;;;;;;;;5038890;28;20037;-80
2023/05/28 13:42:19;;;;;;;14.00;4.05;;;;;;;;;;5053749;28;20116;-80
2023/05/28 13:44:46;;;;;;;10.48;3.78;;;;;;;;;;5052866;28;20041;-80
2023/05/28 13:47:12;;;;;;;12.50;3.10;;;;;;;;;;5035779;28;20067;-80
2023/05/28 13:49:38;;;;;;;9.52;3.30;;;;;;;;;;5052557;28;20041;-81
2023/05/28 13:52:05;;;;;;;12.85;3.63;;;;;;;;;;5052168;28;20037;-80
2023/05/28 13:54:31;;;;;;;9.38;3.60;;;;;;;;;;5052299;28;20550;-80
2023/05/28 13:56:57;;;;;;;8.93;3.60;;;;;;;;;;5051689;28;20037;-81
2023/05/28 13:59:23;;;;;;;8.68;3.22;;;;;;;;;;5052557;28;20045;-80
2023/05/28 14:01:49;;;;;;;9.43;3.35;;;;;;;;;;5052174;28;20049;-81
2023/05/28 14:04:15;;;;;;;16.65;3.40;;;;;;;;;;5035867;28;20525;-80
2023/05/28 14:06:41;;;;;;;7.60;2.92;;;;;;;;;;5052288;28;20041;-80
2023/05/28 14:09:08;;;;;;;9.43;3.10;;;;;;;;;;5035701;28;20045;-86
2023/05/28 14:11:34;;;;;;;10.30;3.03;;;;;;;;;;5052382;28;20048;-85
2023/05/28 14:14:00;;;;;;;8.98;3.00;;;;;;;;;;5035660;28;20041;-86
2023/05/28 14:16:26;;;;;;;9.73;3.10;;;;;;;;;;5052589;28;20393;-85
2023/05/28 14:18:52;;;;;;;9.50;3.35;;;;;;;;;;5052285;28;20119;-85
2023/05/28 14:21:18;;;;;;;10.43;2.95;;;;;;;;;;5051966;28;20051;-85
2023/05/28 14:23:44;;;;;;;6.80;2.80;;;;;;;;;;5036348;28;20045;-86
2023/05/28 14:26:10;;;;;;;8.60;2.60;;;;;;;;;;5035684;28;20068;-85
2023/05/28 14:28:36;;;;;;;7.38;2.92;;;;;;;;;;5052049;28;20108;-86
2023/05/28 14:31:03;;;;;;;7.97;2.72;;;;;;;;;;5051606;28;20053;-85